sensor_id;sensor_type;location;lat;lon;timestamp;temperature;humidity
9730;DHT22;4904;49.152;11.004;2022-12-20T00:01:24;2.90;99.90
9730;DHT22;4904;49.152;11.004;2022-12-20T00:03:52;2.90;99.90
9730;DHT22;4904;49.152;11.004;2022-12-20T00:06:21;2.90;99.90
9730;DHT22;4904;49.152;11.004;2022-12-20T00:08:52;2.90;99.90
9730;DHT22;4904;49.152;11.004;2022-12-20T00:11:21;2.90;99.90
9730;DHT22;4904;49.152;11.004;2022-12-20T00:13:48;2.90;99.90
9730;DHT22;4904;49.152;11.004;2022-12-20T00:16:16;2.90;99.90
9730;DHT22;4904;49.152;11.004;2022-12-20T00:18:43;2.90;99.90
9730;DHT22;4904;49.152;11.004;2022-12-20T00:21:12;2.90;99.90
9730;DHT22;4904;49.152;11.004;2022-12-20T00:23:40;2.90;99.90
9730;DHT22;4904;49.152;11.004;2022-12-20T00:26:08;2.90;99.90
9730;DHT22;4904;49.152;11.004;2022-12-20T00:28:37;3.00;99.90
9730;DHT22;4904;49.152;11.004;2022-12-20T00:31:06;3.00;99.90
9730;DHT22;4904;49.152;11.004;2022-12-20T00:33:33;2.90;99.90
9730;DHT22;4904;49.152;11.004;2022-12-20T00:36:00;3.00;99.90
9730;DHT22;4904;49.152;11.004;2022-12-20T00:38:27;3.00;99.90
9730;DHT22;4904;49.152;11.004;2022-12-20T00:40:59;3.10;99.90
9730;DHT22;4904;49.152;11.004;2022-12-20T00:43:26;3.10;99.90
9730;DHT22;4904;49.152;11.004;2022-12-20T00:45:54;3.10;99.90
9730;DHT22;4904;49.152;11.004;2022-12-20T00:48:22;3.20;99.90
9730;DHT22;4904;49.152;11.004;2022-12-20T00:50:49;3.10;99.90
9730;DHT22;4904;49.152;11.004;2022-12-20T00:53:16;3.00;99.90
9730;DHT22;4904;49.152;11.004;2022-12-20T00:55:44;3.10;99.90
9730;DHT22;4904;49.152;11.004;2022-12-20T00:58:12;3.10;99.90
9730;DHT22;4904;49.152;11.004;2022-12-20T01:00:39;3.20;99.90
9730;DHT22;4904;49.152;11.004;2022-12-20T01:03:08;3.20;99.90
9730;DHT22;4904;49.152;11.004;2022-12-20T01:05:34;3.20;99.90
9730;DHT22;4904;49.152;11.004;2022-12-20T01:08:01;3.20;99.90
9730;DHT22;4904;49.152;11.004;2022-12-20T01:10:28;3.20;99.90
9730;DHT22;4904;49.152;11.004;2022-12-20T01:12:55;3.10;99.90
9730;DHT22;4904;49.152;11.004;2022-12-20T01:15:22;3.10;99.90
9730;DHT22;4904;49.152;11.004;2022-12-20T01:17:49;3.10;99.90
9730;DHT22;4904;49.152;11.004;2022-12-20T01:20:17;3.20;99.90
9730;DHT22;4904;49.152;11.004;2022-12-20T01:22:44;3.20;99.90
9730;DHT22;4904;49.152;11.004;2022-12-20T01:25:11;3.20;99.90
9730;DHT22;4904;49.152;11.004;2022-12-20T01:27:38;3.10;99.90
9730;DHT22;4904;49.152;11.004;2022-12-20T01:30:06;3.20;99.90
9730;DHT22;4904;49.152;11.004;2022-12-20T01:32:33;3.20;99.90
9730;DHT22;4904;49.152;11.004;2022-12-20T01:35:00;3.20;99.90
9730;DHT22;4904;49.152;11.004;2022-12-20T01:37:29;3.10;99.90
9730;DHT22;4904;49.152;11.004;2022-12-20T01:39:56;3.20;99.90
9730;DHT22;4904;49.152;11.004;2022-12-20T01:42:23;3.10;99.90
9730;DHT22;4904;49.152;11.004;2022-12-20T01:44:56;3.10;99.90
9730;DHT22;4904;49.152;11.004;2022-12-20T01:47:25;3.10;99.90
9730;DHT22;4904;49.152;11.004;2022-12-20T01:49:53;3.10;99.90
9730;DHT22;4904;49.152;11.004;2022-12-20T01:52:26;3.10;99.90
9730;DHT22;4904;49.152;11.004;2022-12-20T01:54:59;3.10;99.90
9730;DHT22;4904;49.152;11.004;2022-12-20T01:57:31;3.10;99.90
9730;DHT22;4904;49.152;11.004;2022-12-20T02:00:01;3.00;99.90
9730;DHT22;4904;49.152;11.004;2022-12-20T02:02:29;3.00;99.90
9730;DHT22;4904;49.152;11.004;2022-12-20T02:04:57;3.00;99.90
9730;DHT22;4904;49.152;11.004;2022-12-20T02:07:25;2.90;99.90
9730;DHT22;4904;49.152;11.004;2022-12-20T02:09:56;3.00;99.90
9730;DHT22;4904;49.152;11.004;2022-12-20T02:12:28;3.00;99.90
9730;DHT22;4904;49.152;11.004;2022-12-20T02:15:08;3.00;99.90
9730;DHT22;4904;49.152;11.004;2022-12-20T02:17:46;3.00;99.90
9730;DHT22;4904;49.152;11.004;2022-12-20T02:20:48;3.10;99.90
9730;DHT22;4904;49.152;11.004;2022-12-20T02:29:36;3.10;99.90
9730;DHT22;4904;49.152;11.004;2022-12-20T02:32:10;3.00;99.90
9730;DHT22;4904;49.152;11.004;2022-12-20T02:34:39;3.00;99.90
9730;DHT22;4904;49.152;11.004;2022-12-20T02:37:07;3.00;99.90
9730;DHT22;4904;49.152;11.004;2022-12-20T02:39:35;3.00;99.90
9730;DHT22;4904;49.152;11.004;2022-12-20T02:42:05;3.00;99.90
9730;DHT22;4904;49.152;11.004;2022-12-20T02:44:35;3.00;99.90
9730;DHT22;4904;49.152;11.004;2022-12-20T02:47:31;3.00;99.90
9730;DHT22;4904;49.152;11.004;2022-12-20T02:49:59;2.90;99.90
9730;DHT22;4904;49.152;11.004;2022-12-20T02:52:28;2.90;99.90
9730;DHT22;4904;49.152;11.004;2022-12-20T02:54:57;2.90;99.90
9730;DHT22;4904;49.152;11.004;2022-12-20T02:57:27;3.00;99.90
9730;DHT22;4904;49.152;11.004;2022-12-20T02:59:59;3.00;99.90
9730;DHT22;4904;49.152;11.004;2022-12-20T03:02:29;3.00;99.90
9730;DHT22;4904;49.152;11.004;2022-12-20T03:05:20;3.00;99.90
9730;DHT22;4904;49.152;11.004;2022-12-20T03:07:48;3.00;99.90
9730;DHT22;4904;49.152;11.004;2022-12-20T03:10:15;3.00;99.90
9730;DHT22;4904;49.152;11.004;2022-12-20T03:12:43;3.00;99.90
9730;DHT22;4904;49.152;11.004;2022-12-20T03:15:10;2.90;99.90
9730;DHT22;4904;49.152;11.004;2022-12-20T03:17:38;2.90;99.90
9730;DHT22;4904;49.152;11.004;2022-12-20T03:20:06;2.90;99.90
9730;DHT22;4904;49.152;11.004;2022-12-20T03:22:36;2.90;99.90
9730;DHT22;4904;49.152;11.004;2022-12-20T03:25:03;2.80;99.90
9730;DHT22;4904;49.152;11.004;2022-12-20T03:27:30;2.80;99.90
9730;DHT22;4904;49.152;11.004;2022-12-20T03:29:57;2.80;99.90
9730;DHT22;4904;49.152;11.004;2022-12-20T03:32:24;2.60;99.90
9730;DHT22;4904;49.152;11.004;2022-12-20T03:34:52;2.60;99.90
9730;DHT22;4904;49.152;11.004;2022-12-20T03:37:19;2.70;99.90
9730;DHT22;4904;49.152;11.004;2022-12-20T03:39:46;2.60;99.90
9730;DHT22;4904;49.152;11.004;2022-12-20T03:42:13;2.70;99.90
9730;DHT22;4904;49.152;11.004;2022-12-20T03:44:40;2.60;99.90
9730;DHT22;4904;49.152;11.004;2022-12-20T03:47:07;2.70;99.90
9730;DHT22;4904;49.152;11.004;2022-12-20T03:49:34;2.70;99.90
9730;DHT22;4904;49.152;11.004;2022-12-20T03:52:02;2.70;99.90
9730;DHT22;4904;49.152;11.004;2022-12-20T03:54:29;2.80;99.90
9730;DHT22;4904;49.152;11.004;2022-12-20T03:56:56;2.80;99.90
9730;DHT22;4904;49.152;11.004;2022-12-20T03:59:22;2.80;99.90
9730;DHT22;4904;49.152;11.004;2022-12-20T04:01:49;2.80;99.90
9730;DHT22;4904;49.152;11.004;2022-12-20T04:04:16;2.80;99.90
9730;DHT22;4904;49.152;11.004;2022-12-20T04:06:43;2.90;99.90
9730;DHT22;4904;49.152;11.004;2022-12-20T04:09:11;2.90;99.90
9730;DHT22;4904;49.152;11.004;2022-12-20T04:11:38;3.00;99.90
9730;DHT22;4904;49.152;11.004;2022-12-20T04:14:05;3.00;99.90
9730;DHT22;4904;49.152;11.004;2022-12-20T04:16:33;3.00;99.90
9730;DHT22;4904;49.152;11.004;2022-12-20T04:19:00;3.00;99.90
9730;DHT22;4904;49.152;11.004;2022-12-20T04:21:28;3.00;99.90
9730;DHT22;4904;49.152;11.004;2022-12-20T04:23:56;3.00;99.90
9730;DHT22;4904;49.152;11.004;2022-12-20T04:26:24;2.90;99.90
9730;DHT22;4904;49.152;11.004;2022-12-20T04:28:51;2.90;99.90
9730;DHT22;4904;49.152;11.004;2022-12-20T04:31:18;2.80;99.90
9730;DHT22;4904;49.152;11.004;2022-12-20T04:33:45;2.80;99.90
9730;DHT22;4904;49.152;11.004;2022-12-20T04:36:13;2.80;99.90
9730;DHT22;4904;49.152;11.004;2022-12-20T04:38:40;2.70;99.90
9730;DHT22;4904;49.152;11.004;2022-12-20T04:41:07;2.70;99.90
9730;DHT22;4904;49.152;11.004;2022-12-20T04:43:35;2.70;99.90
9730;DHT22;4904;49.152;11.004;2022-12-20T04:46:02;2.60;99.90
9730;DHT22;4904;49.152;11.004;2022-12-20T04:48:29;2.60;99.90
9730;DHT22;4904;49.152;11.004;2022-12-20T04:50:56;2.60;99.90
9730;DHT22;4904;49.152;11.004;2022-12-20T04:53:23;2.60;99.90
9730;DHT22;4904;49.152;11.004;2022-12-20T04:56:07;2.60;99.90
9730;DHT22;4904;49.152;11.004;2022-12-20T04:58:36;2.60;99.90
9730;DHT22;4904;49.152;11.004;2022-12-20T05:01:03;2.70;99.90
9730;DHT22;4904;49.152;11.004;2022-12-20T05:03:29;2.60;99.90
9730;DHT22;4904;49.152;11.004;2022-12-20T05:05:56;2.60;99.90
9730;DHT22;4904;49.152;11.004;2022-12-20T05:08:23;2.70;99.90
9730;DHT22;4904;49.152;11.004;2022-12-20T05:10:50;2.80;99.90
9730;DHT22;4904;49.152;11.004;2022-12-20T05:13:17;2.70;99.90
9730;DHT22;4904;49.152;11.004;2022-12-20T05:15:50;2.70;99.90
9730;DHT22;4904;49.152;11.004;2022-12-20T05:18:17;2.70;99.90
9730;DHT22;4904;49.152;11.004;2022-12-20T05:20:44;2.70;99.90
9730;DHT22;4904;49.152;11.004;2022-12-20T05:23:11;2.80;99.90
9730;DHT22;4904;49.152;11.004;2022-12-20T05:25:56;2.80;99.90
9730;DHT22;4904;49.152;11.004;2022-12-20T05:28:40;2.80;99.90
9730;DHT22;4904;49.152;11.004;2022-12-20T05:31:08;2.90;99.90
9730;DHT22;4904;49.152;11.004;2022-12-20T05:33:35;3.00;99.90
9730;DHT22;4904;49.152;11.004;2022-12-20T05:36:02;3.00;99.90
9730;DHT22;4904;49.152;11.004;2022-12-20T05:38:29;3.00;99.90
9730;DHT22;4904;49.152;11.004;2022-12-20T05:40:56;3.00;99.90
9730;DHT22;4904;49.152;11.004;2022-12-20T05:43:23;3.10;99.90
9730;DHT22;4904;49.152;11.004;2022-12-20T05:45:51;3.10;99.90
9730;DHT22;4904;49.152;11.004;2022-12-20T05:48:20;3.10;99.90
9730;DHT22;4904;49.152;11.004;2022-12-20T05:50:47;3.10;99.90
9730;DHT22;4904;49.152;11.004;2022-12-20T05:53:15;3.10;99.90
9730;DHT22;4904;49.152;11.004;2022-12-20T05:55:43;3.10;99.90
9730;DHT22;4904;49.152;11.004;2022-12-20T05:58:10;2.90;99.90
9730;DHT22;4904;49.152;11.004;2022-12-20T06:00:39;2.90;99.90
9730;DHT22;4904;49.152;11.004;2022-12-20T06:03:06;3.00;99.90
9730;DHT22;4904;49.152;11.004;2022-12-20T06:05:35;3.00;99.90
9730;DHT22;4904;49.152;11.004;2022-12-20T06:08:02;3.00;99.90
9730;DHT22;4904;49.152;11.004;2022-12-20T06:10:30;3.10;99.90
9730;DHT22;4904;49.152;11.004;2022-12-20T06:12:56;3.10;99.90
9730;DHT22;4904;49.152;11.004;2022-12-20T06:15:24;3.10;99.90
9730;DHT22;4904;49.152;11.004;2022-12-20T06:17:51;3.10;99.90
9730;DHT22;4904;49.152;11.004;2022-12-20T06:20:18;3.00;99.90
9730;DHT22;4904;49.152;11.004;2022-12-20T06:22:46;3.00;99.90
9730;DHT22;4904;49.152;11.004;2022-12-20T06:25:13;3.10;99.90
9730;DHT22;4904;49.152;11.004;2022-12-20T06:27:40;3.00;99.90
9730;DHT22;4904;49.152;11.004;2022-12-20T06:30:09;3.10;99.90
9730;DHT22;4904;49.152;11.004;2022-12-20T06:32:36;3.00;99.90
9730;DHT22;4904;49.152;11.004;2022-12-20T06:35:03;3.00;99.90
9730;DHT22;4904;49.152;11.004;2022-12-20T06:37:30;3.10;99.90
9730;DHT22;4904;49.152;11.004;2022-12-20T06:39:59;3.00;99.90
9730;DHT22;4904;49.152;11.004;2022-12-20T06:42:26;3.00;99.90
9730;DHT22;4904;49.152;11.004;2022-12-20T06:44:52;3.10;99.90
9730;DHT22;4904;49.152;11.004;2022-12-20T06:47:19;3.20;99.90
9730;DHT22;4904;49.152;11.004;2022-12-20T06:49:46;3.20;99.90
9730;DHT22;4904;49.152;11.004;2022-12-20T06:52:13;3.10;99.90
9730;DHT22;4904;49.152;11.004;2022-12-20T06:54:39;3.10;99.90
9730;DHT22;4904;49.152;11.004;2022-12-20T06:57:08;3.20;99.90
9730;DHT22;4904;49.152;11.004;2022-12-20T06:59:35;3.10;99.90
9730;DHT22;4904;49.152;11.004;2022-12-20T07:02:01;3.20;99.90
9730;DHT22;4904;49.152;11.004;2022-12-20T07:04:28;3.20;99.90
9730;DHT22;4904;49.152;11.004;2022-12-20T07:06:55;3.30;99.90
9730;DHT22;4904;49.152;11.004;2022-12-20T07:09:22;3.70;99.90
9730;DHT22;4904;49.152;11.004;2022-12-20T07:11:49;3.10;99.90
9730;DHT22;4904;49.152;11.004;2022-12-20T07:14:17;3.20;99.90
9730;DHT22;4904;49.152;11.004;2022-12-20T07:16:44;3.20;99.90
9730;DHT22;4904;49.152;11.004;2022-12-20T07:19:11;3.30;99.90
9730;DHT22;4904;49.152;11.004;2022-12-20T07:21:38;3.30;99.90
9730;DHT22;4904;49.152;11.004;2022-12-20T07:24:06;3.40;99.90
9730;DHT22;4904;49.152;11.004;2022-12-20T07:26:33;3.40;99.90
9730;DHT22;4904;49.152;11.004;2022-12-20T07:29:01;3.30;99.90
9730;DHT22;4904;49.152;11.004;2022-12-20T07:31:29;3.30;99.90
9730;DHT22;4904;49.152;11.004;2022-12-20T07:33:56;3.30;99.90
9730;DHT22;4904;49.152;11.004;2022-12-20T07:36:23;3.20;99.90
9730;DHT22;4904;49.152;11.004;2022-12-20T07:38:49;3.20;99.90
9730;DHT22;4904;49.152;11.004;2022-12-20T07:41:17;3.20;99.90
9730;DHT22;4904;49.152;11.004;2022-12-20T07:43:44;3.20;99.90
9730;DHT22;4904;49.152;11.004;2022-12-20T07:46:13;3.30;99.90
9730;DHT22;4904;49.152;11.004;2022-12-20T07:48:41;3.20;99.90
9730;DHT22;4904;49.152;11.004;2022-12-20T07:51:12;3.20;99.90
9730;DHT22;4904;49.152;11.004;2022-12-20T07:53:42;3.20;99.90
9730;DHT22;4904;49.152;11.004;2022-12-20T07:56:12;3.20;99.90
9730;DHT22;4904;49.152;11.004;2022-12-20T07:58:40;3.20;99.90
9730;DHT22;4904;49.152;11.004;2022-12-20T08:01:09;3.10;99.90
9730;DHT22;4904;49.152;11.004;2022-12-20T08:03:41;3.20;99.90
9730;DHT22;4904;49.152;11.004;2022-12-20T08:06:09;3.20;99.90
9730;DHT22;4904;49.152;11.004;2022-12-20T08:08:41;3.20;99.90
9730;DHT22;4904;49.152;11.004;2022-12-20T08:11:09;3.10;99.90
9730;DHT22;4904;49.152;11.004;2022-12-20T08:13:37;3.10;99.90
9730;DHT22;4904;49.152;11.004;2022-12-20T08:16:05;3.10;99.90
9730;DHT22;4904;49.152;11.004;2022-12-20T08:18:32;3.10;99.90
9730;DHT22;4904;49.152;11.004;2022-12-20T08:21:00;3.10;99.90
9730;DHT22;4904;49.152;11.004;2022-12-20T08:23:27;3.20;99.90
9730;DHT22;4904;49.152;11.004;2022-12-20T08:25:54;3.20;99.90
9730;DHT22;4904;49.152;11.004;2022-12-20T08:28:21;3.30;99.90
9730;DHT22;4904;49.152;11.004;2022-12-20T08:30:48;3.30;99.90
9730;DHT22;4904;49.152;11.004;2022-12-20T08:33:15;3.20;99.90
9730;DHT22;4904;49.152;11.004;2022-12-20T08:35:42;3.10;99.90
9730;DHT22;4904;49.152;11.004;2022-12-20T08:38:10;3.00;99.90
9730;DHT22;4904;49.152;11.004;2022-12-20T08:40:38;3.10;99.90
9730;DHT22;4904;49.152;11.004;2022-12-20T08:43:04;3.10;99.90
9730;DHT22;4904;49.152;11.004;2022-12-20T08:45:31;3.10;99.90
9730;DHT22;4904;49.152;11.004;2022-12-20T08:47:58;3.20;99.90
9730;DHT22;4904;49.152;11.004;2022-12-20T08:50:25;3.20;99.90
9730;DHT22;4904;49.152;11.004;2022-12-20T08:52:52;3.20;99.90
9730;DHT22;4904;49.152;11.004;2022-12-20T08:55:21;3.20;99.90
9730;DHT22;4904;49.152;11.004;2022-12-20T08:57:48;3.30;99.90
9730;DHT22;4904;49.152;11.004;2022-12-20T09:00:15;3.30;99.90
9730;DHT22;4904;49.152;11.004;2022-12-20T09:02:42;3.30;99.90
9730;DHT22;4904;49.152;11.004;2022-12-20T09:05:09;3.30;99.90
9730;DHT22;4904;49.152;11.004;2022-12-20T09:07:36;3.30;99.90
9730;DHT22;4904;49.152;11.004;2022-12-20T09:10:03;3.30;99.90
9730;DHT22;4904;49.152;11.004;2022-12-20T09:12:35;3.30;99.90
9730;DHT22;4904;49.152;11.004;2022-12-20T09:15:02;3.30;99.90
9730;DHT22;4904;49.152;11.004;2022-12-20T09:17:29;3.40;99.90
9730;DHT22;4904;49.152;11.004;2022-12-20T09:19:56;3.40;99.90
9730;DHT22;4904;49.152;11.004;2022-12-20T09:22:23;3.40;99.90
9730;DHT22;4904;49.152;11.004;2022-12-20T09:24:50;3.40;99.90
9730;DHT22;4904;49.152;11.004;2022-12-20T09:27:16;3.50;99.90
9730;DHT22;4904;49.152;11.004;2022-12-20T09:29:45;3.60;99.90
9730;DHT22;4904;49.152;11.004;2022-12-20T09:32:12;3.70;99.90
9730;DHT22;4904;49.152;11.004;2022-12-20T09:34:39;3.70;99.90
9730;DHT22;4904;49.152;11.004;2022-12-20T09:37:05;3.80;99.90
9730;DHT22;4904;49.152;11.004;2022-12-20T09:39:32;3.80;99.90
9730;DHT22;4904;49.152;11.004;2022-12-20T09:41:59;3.90;99.90
9730;DHT22;4904;49.152;11.004;2022-12-20T09:44:28;3.90;99.90
9730;DHT22;4904;49.152;11.004;2022-12-20T09:47:00;3.90;99.90
9730;DHT22;4904;49.152;11.004;2022-12-20T09:49:32;3.90;99.90
9730;DHT22;4904;49.152;11.004;2022-12-20T09:52:20;4.00;99.90
9730;DHT22;4904;49.152;11.004;2022-12-20T09:54:57;4.00;99.90
9730;DHT22;4904;49.152;11.004;2022-12-20T09:57:32;4.10;99.90
9730;DHT22;4904;49.152;11.004;2022-12-20T10:00:11;4.20;99.90
9730;DHT22;4904;49.152;11.004;2022-12-20T10:02:40;4.20;99.90
9730;DHT22;4904;49.152;11.004;2022-12-20T10:05:12;4.30;99.90
9730;DHT22;4904;49.152;11.004;2022-12-20T10:07:47;4.30;99.90
9730;DHT22;4904;49.152;11.004;2022-12-20T10:10:35;4.40;99.90
9730;DHT22;4904;49.152;11.004;2022-12-20T10:13:13;4.40;99.90
9730;DHT22;4904;49.152;11.004;2022-12-20T10:15:46;4.40;99.90
9730;DHT22;4904;49.152;11.004;2022-12-20T10:18:27;4.40;99.90
9730;DHT22;4904;49.152;11.004;2022-12-20T10:21:02;4.40;99.90
9730;DHT22;4904;49.152;11.004;2022-12-20T10:23:38;4.40;99.90
9730;DHT22;4904;49.152;11.004;2022-12-20T10:26:09;4.40;99.90
9730;DHT22;4904;49.152;11.004;2022-12-20T10:28:36;4.40;99.90
9730;DHT22;4904;49.152;11.004;2022-12-20T10:31:05;4.40;99.90
9730;DHT22;4904;49.152;11.004;2022-12-20T10:33:34;4.40;99.90
9730;DHT22;4904;49.152;11.004;2022-12-20T10:36:24;4.40;99.90
9730;DHT22;4904;49.152;11.004;2022-12-20T10:38:53;4.50;99.90
9730;DHT22;4904;49.152;11.004;2022-12-20T10:41:23;4.50;99.90
9730;DHT22;4904;49.152;11.004;2022-12-20T10:43:54;4.60;99.90
9730;DHT22;4904;49.152;11.004;2022-12-20T10:46:22;4.60;99.90
9730;DHT22;4904;49.152;11.004;2022-12-20T10:49:20;4.70;99.90
9730;DHT22;4904;49.152;11.004;2022-12-20T10:51:51;4.70;99.90
9730;DHT22;4904;49.152;11.004;2022-12-20T10:54:22;4.80;99.90
9730;DHT22;4904;49.152;11.004;2022-12-20T10:56:54;4.80;99.90
9730;DHT22;4904;49.152;11.004;2022-12-20T10:59:27;4.90;99.90
9730;DHT22;4904;49.152;11.004;2022-12-20T11:01:56;4.80;99.90
9730;DHT22;4904;49.152;11.004;2022-12-20T11:04:27;4.80;99.90
9730;DHT22;4904;49.152;11.004;2022-12-20T11:06:55;4.90;99.90
9730;DHT22;4904;49.152;11.004;2022-12-20T11:09:29;4.90;99.90
9730;DHT22;4904;49.152;11.004;2022-12-20T11:11:58;4.90;99.90
9730;DHT22;4904;49.152;11.004;2022-12-20T11:14:25;4.90;99.90
9730;DHT22;4904;49.152;11.004;2022-12-20T11:16:53;4.90;99.90
9730;DHT22;4904;49.152;11.004;2022-12-20T11:22:40;5.00;99.90
9730;DHT22;4904;49.152;11.004;2022-12-20T11:25:27;5.00;99.90
9730;DHT22;4904;49.152;11.004;2022-12-20T11:28:12;5.10;99.90
9730;DHT22;4904;49.152;11.004;2022-12-20T11:30:51;5.10;99.90
9730;DHT22;4904;49.152;11.004;2022-12-20T11:33:35;5.20;99.90
9730;DHT22;4904;49.152;11.004;2022-12-20T11:36:08;5.20;99.90
9730;DHT22;4904;49.152;11.004;2022-12-20T11:38:42;5.30;99.90
9730;DHT22;4904;49.152;11.004;2022-12-20T11:41:18;5.30;99.90
9730;DHT22;4904;49.152;11.004;2022-12-20T11:43:59;5.30;99.90
9730;DHT22;4904;49.152;11.004;2022-12-20T11:46:40;5.40;99.90
9730;DHT22;4904;49.152;11.004;2022-12-20T11:49:32;5.40;99.90
9730;DHT22;4904;49.152;11.004;2022-12-20T11:52:16;5.40;99.90
9730;DHT22;4904;49.152;11.004;2022-12-20T11:54:48;5.50;99.90
9730;DHT22;4904;49.152;11.004;2022-12-20T11:57:22;5.50;99.90
9730;DHT22;4904;49.152;11.004;2022-12-20T11:59:55;5.60;99.90
9730;DHT22;4904;49.152;11.004;2022-12-20T12:02:28;5.70;99.90
9730;DHT22;4904;49.152;11.004;2022-12-20T12:05:03;5.70;99.90
9730;DHT22;4904;49.152;11.004;2022-12-20T12:07:34;5.80;99.90
9730;DHT22;4904;49.152;11.004;2022-12-20T12:10:04;5.80;99.90
9730;DHT22;4904;49.152;11.004;2022-12-20T12:12:41;5.90;99.90
9730;DHT22;4904;49.152;11.004;2022-12-20T12:15:19;5.90;99.90
9730;DHT22;4904;49.152;11.004;2022-12-20T12:17:53;6.00;99.90
9730;DHT22;4904;49.152;11.004;2022-12-20T12:20:28;6.10;99.90
9730;DHT22;4904;49.152;11.004;2022-12-20T12:23:04;6.00;99.90
9730;DHT22;4904;49.152;11.004;2022-12-20T12:25:32;5.90;99.90
9730;DHT22;4904;49.152;11.004;2022-12-20T12:27:59;5.90;99.90
9730;DHT22;4904;49.152;11.004;2022-12-20T12:30:28;5.90;99.90
9730;DHT22;4904;49.152;11.004;2022-12-20T12:33:04;5.90;99.90
9730;DHT22;4904;49.152;11.004;2022-12-20T12:35:46;6.00;99.90
9730;DHT22;4904;49.152;11.004;2022-12-20T12:38:47;5.90;99.90
9730;DHT22;4904;49.152;11.004;2022-12-20T12:44:33;5.90;99.90
9730;DHT22;4904;49.152;11.004;2022-12-20T12:47:05;5.90;99.90
9730;DHT22;4904;49.152;11.004;2022-12-20T12:49:33;5.90;99.90
9730;DHT22;4904;49.152;11.004;2022-12-20T12:52:03;6.00;99.90
9730;DHT22;4904;49.152;11.004;2022-12-20T12:54:36;6.10;99.90
9730;DHT22;4904;49.152;11.004;2022-12-20T12:57:09;6.20;99.90
9730;DHT22;4904;49.152;11.004;2022-12-20T12:59:43;6.20;99.90
9730;DHT22;4904;49.152;11.004;2022-12-20T13:02:32;6.30;99.90
9730;DHT22;4904;49.152;11.004;2022-12-20T13:07:42;6.50;99.90
9730;DHT22;4904;49.152;11.004;2022-12-20T13:13:20;6.60;99.90
9730;DHT22;4904;49.152;11.004;2022-12-20T13:16:03;6.70;99.90
9730;DHT22;4904;49.152;11.004;2022-12-20T13:18:31;6.70;99.90
9730;DHT22;4904;49.152;11.004;2022-12-20T13:21:26;6.70;99.90
9730;DHT22;4904;49.152;11.004;2022-12-20T13:27:27;6.80;99.90
9730;DHT22;4904;49.152;11.004;2022-12-20T13:30:26;6.80;99.90
9730;DHT22;4904;49.152;11.004;2022-12-20T13:33:18;6.70;99.90
9730;DHT22;4904;49.152;11.004;2022-12-20T13:35:56;6.50;99.90
9730;DHT22;4904;49.152;11.004;2022-12-20T13:38:41;6.40;99.90
9730;DHT22;4904;49.152;11.004;2022-12-20T13:41:24;6.50;99.90
9730;DHT22;4904;49.152;11.004;2022-12-20T13:43:53;6.60;99.90
9730;DHT22;4904;49.152;11.004;2022-12-20T13:46:25;6.60;99.90
9730;DHT22;4904;49.152;11.004;2022-12-20T13:48:56;6.50;99.90
9730;DHT22;4904;49.152;11.004;2022-12-20T13:51:26;6.50;99.90
9730;DHT22;4904;49.152;11.004;2022-12-20T13:53:55;6.40;99.90
9730;DHT22;4904;49.152;11.004;2022-12-20T13:56:36;6.40;99.90
9730;DHT22;4904;49.152;11.004;2022-12-20T13:59:11;6.30;99.90
9730;DHT22;4904;49.152;11.004;2022-12-20T14:01:48;6.30;99.90
9730;DHT22;4904;49.152;11.004;2022-12-20T14:04:16;6.20;99.90
9730;DHT22;4904;49.152;11.004;2022-12-20T14:06:44;6.20;99.90
9730;DHT22;4904;49.152;11.004;2022-12-20T14:09:30;6.20;99.90
9730;DHT22;4904;49.152;11.004;2022-12-20T14:12:05;6.30;99.90
9730;DHT22;4904;49.152;11.004;2022-12-20T14:14:36;6.30;99.90
9730;DHT22;4904;49.152;11.004;2022-12-20T14:17:21;6.40;99.90
9730;DHT22;4904;49.152;11.004;2022-12-20T14:20:02;6.40;99.90
9730;DHT22;4904;49.152;11.004;2022-12-20T14:22:30;6.30;99.90
9730;DHT22;4904;49.152;11.004;2022-12-20T14:24:57;6.20;99.90
9730;DHT22;4904;49.152;11.004;2022-12-20T14:27:27;6.30;99.90
9730;DHT22;4904;49.152;11.004;2022-12-20T14:29:55;6.30;99.90
9730;DHT22;4904;49.152;11.004;2022-12-20T14:32:23;6.40;99.90
9730;DHT22;4904;49.152;11.004;2022-12-20T14:34:50;6.40;99.90
9730;DHT22;4904;49.152;11.004;2022-12-20T14:37:27;6.40;99.90
9730;DHT22;4904;49.152;11.004;2022-12-20T14:39:58;6.50;99.90
9730;DHT22;4904;49.152;11.004;2022-12-20T14:42:31;6.50;99.90
9730;DHT22;4904;49.152;11.004;2022-12-20T14:45:03;6.50;99.90
9730;DHT22;4904;49.152;11.004;2022-12-20T14:47:32;6.50;99.90
9730;DHT22;4904;49.152;11.004;2022-12-20T14:50:00;6.30;99.90
9730;DHT22;4904;49.152;11.004;2022-12-20T14:52:32;6.10;99.90
9730;DHT22;4904;49.152;11.004;2022-12-20T14:55:03;6.00;99.90
9730;DHT22;4904;49.152;11.004;2022-12-20T14:57:38;6.00;99.90
9730;DHT22;4904;49.152;11.004;2022-12-20T15:00:12;6.00;99.90
9730;DHT22;4904;49.152;11.004;2022-12-20T15:02:45;6.00;99.90
9730;DHT22;4904;49.152;11.004;2022-12-20T15:05:43;6.00;99.90
9730;DHT22;4904;49.152;11.004;2022-12-20T15:08:13;5.90;99.90
9730;DHT22;4904;49.152;11.004;2022-12-20T15:10:41;5.90;99.90
9730;DHT22;4904;49.152;11.004;2022-12-20T15:13:12;5.70;99.90
9730;DHT22;4904;49.152;11.004;2022-12-20T15:15:40;5.70;99.90
9730;DHT22;4904;49.152;11.004;2022-12-20T15:18:13;5.80;99.90
9730;DHT22;4904;49.152;11.004;2022-12-20T15:20:40;5.80;99.90
9730;DHT22;4904;49.152;11.004;2022-12-20T15:23:12;5.70;99.90
9730;DHT22;4904;49.152;11.004;2022-12-20T15:25:40;5.70;99.90
9730;DHT22;4904;49.152;11.004;2022-12-20T15:28:16;5.70;99.90
9730;DHT22;4904;49.152;11.004;2022-12-20T15:30:43;5.70;99.90
9730;DHT22;4904;49.152;11.004;2022-12-20T15:33:20;5.70;99.90
9730;DHT22;4904;49.152;11.004;2022-12-20T15:35:47;5.70;99.90
9730;DHT22;4904;49.152;11.004;2022-12-20T15:38:15;5.70;99.90
9730;DHT22;4904;49.152;11.004;2022-12-20T15:40:44;5.80;99.90
9730;DHT22;4904;49.152;11.004;2022-12-20T15:43:12;5.70;99.90
9730;DHT22;4904;49.152;11.004;2022-12-20T15:45:41;5.60;99.90
9730;DHT22;4904;49.152;11.004;2022-12-20T15:48:15;5.60;99.90
9730;DHT22;4904;49.152;11.004;2022-12-20T15:50:51;5.60;99.90
9730;DHT22;4904;49.152;11.004;2022-12-20T15:53:22;5.60;99.90
9730;DHT22;4904;49.152;11.004;2022-12-20T15:55:50;5.50;99.90
9730;DHT22;4904;49.152;11.004;2022-12-20T15:58:18;5.50;99.90
9730;DHT22;4904;49.152;11.004;2022-12-20T16:00:44;5.50;99.90
9730;DHT22;4904;49.152;11.004;2022-12-20T16:03:13;5.60;99.90
9730;DHT22;4904;49.152;11.004;2022-12-20T16:05:41;5.70;99.90
9730;DHT22;4904;49.152;11.004;2022-12-20T16:08:10;5.70;99.90
9730;DHT22;4904;49.152;11.004;2022-12-20T16:10:36;5.70;99.90
9730;DHT22;4904;49.152;11.004;2022-12-20T16:13:04;5.80;99.90
9730;DHT22;4904;49.152;11.004;2022-12-20T16:15:32;5.70;99.90
9730;DHT22;4904;49.152;11.004;2022-12-20T16:17:59;5.60;99.90
9730;DHT22;4904;49.152;11.004;2022-12-20T16:20:25;5.70;99.90
9730;DHT22;4904;49.152;11.004;2022-12-20T16:22:54;5.70;99.90
9730;DHT22;4904;49.152;11.004;2022-12-20T16:25:27;5.70;99.90
9730;DHT22;4904;49.152;11.004;2022-12-20T16:27:55;5.60;99.90
9730;DHT22;4904;49.152;11.004;2022-12-20T16:30:22;5.60;99.90
9730;DHT22;4904;49.152;11.004;2022-12-20T16:32:49;5.40;99.90
9730;DHT22;4904;49.152;11.004;2022-12-20T16:35:23;5.40;99.90
9730;DHT22;4904;49.152;11.004;2022-12-20T16:37:52;5.40;99.90
9730;DHT22;4904;49.152;11.004;2022-12-20T16:40:21;5.40;99.90
9730;DHT22;4904;49.152;11.004;2022-12-20T16:42:49;5.40;99.90
9730;DHT22;4904;49.152;11.004;2022-12-20T16:45:18;5.40;99.90